Time;durP1;ratioP1;P1;durP2;ratioP2;P2;SDS_P1;SDS_P2;PMS_P1;PMS_P2;Temp;Humidity;BMP_temperature;BMP_pressure;BME280_temperature;BME280_humidity;BME280_pressure;Samples;Min_cycle;Max_cycle;Signal;HPM_P1;HPM_P2
2023/03/12 00:00:29;;;;;;;;;6.00;4.40;;;;;1.25;75.94;99525.75;5097734;28;8826;-58
2023/03/12 00:02:57;;;;;;;;;3.60;3.40;;;;;1.25;76.17;99526.63;5097833;28;8838;-61
2023/03/12 00:05:26;;;;;;;;;5.60;4.00;;;;;1.26;76.95;99511.72;5097885;28;8833;-59
2023/03/12 00:07:53;;;;;;;;;5.60;4.60;;;;;1.26;76.17;99514.34;5097886;28;8833;-61
2023/03/12 00:10:21;;;;;;;;;3.80;3.60;;;;;1.25;76.52;99515.28;5098319;28;8859;-61
2023/03/12 00:12:49;;;;;;;;;4.80;4.80;;;;;1.22;76.67;99511.03;5098958;28;9762;-59
2023/03/12 00:15:16;;;;;;;;;6.00;6.00;;;;;1.19;76.41;99503.31;5098401;28;8850;-61
2023/03/12 00:17:45;;;;;;;;;7.40;7.00;;;;;1.16;76.01;99505.25;5099206;28;9894;-60
2023/03/12 00:20:13;;;;;;;;;4.40;3.60;;;;;1.15;76.72;99500.94;5093607;28;8808;-60
2023/03/12 00:22:41;;;;;;;;;8.20;7.00;;;;;1.13;77.28;99510.66;5095153;28;9007;-60
2023/03/12 00:25:08;;;;;;;;;9.20;7.80;;;;;1.11;76.93;99509.84;5098388;28;8826;-60
2023/03/12 00:27:36;;;;;;;;;6.40;6.00;;;;;1.11;76.79;99499.34;5096005;28;8845;-58
2023/03/12 00:30:04;;;;;;;;;6.20;5.20;;;;;1.10;76.79;99503.78;5091106;28;8798;-58
2023/03/12 00:32:32;;;;;;;;;5.20;4.80;;;;;1.11;76.43;99502.84;5096036;28;8818;-61
2023/03/12 00:35:00;;;;;;;;;6.00;4.80;;;;;1.12;77.04;99494.06;5097435;28;9658;-61
2023/03/12 00:37:27;;;;;;;;;7.60;6.40;;;;;1.10;76.96;99503.78;5097163;28;8834;-61
2023/03/12 00:39:56;;;;;;;;;7.00;6.40;;;;;1.07;77.28;99497.81;5097657;28;8834;-61
2023/03/12 00:42:28;;;;;;;;;5.60;4.00;;;;;1.04;77.10;99490.97;5098172;28;8876;-61
2023/03/12 00:44:56;;;;;;;;;6.20;6.00;;;;;0.99;77.48;99495.56;5096731;28;8948;-59
2023/03/12 00:47:23;;;;;;;;;8.20;6.60;;;;;0.96;77.46;99490.47;5094720;28;8848;-61
2023/03/12 00:49:51;;;;;;;;;8.60;7.20;;;;;0.93;77.63;99488.00;5077723;28;8836;-61
2023/03/12 00:52:18;;;;;;;;;7.00;7.00;;;;;0.90;77.73;99482.91;5077521;28;8828;-61
2023/03/12 00:54:47;;;;;;;;;8.20;8.20;;;;;0.89;77.13;99481.22;5077499;28;8843;-60
2023/03/12 00:57:14;;;;;;;;;5.80;4.60;;;;;0.89;77.26;99475.97;5077817;28;8820;-61
2023/03/12 00:59:42;;;;;;;;;5.20;5.20;;;;;0.94;77.20;99476.63;5097827;28;8836;-61
2023/03/12 01:02:10;;;;;;;;;3.60;3.60;;;;;1.01;77.30;99464.88;5097719;28;8814;-59
2023/03/12 01:04:38;;;;;;;;;4.80;3.60;;;;;1.11;77.31;99462.66;5097048;28;8818;-60
2023/03/12 01:07:05;;;;;;;;;3.40;3.20;;;;;1.20;76.72;99467.44;5096627;28;8829;-58
2023/03/12 01:09:33;;;;;;;;;3.00;3.00;;;;;1.28;76.75;99460.91;5096426;28;8826;-60
2023/03/12 01:12:01;;;;;;;;;2.60;2.60;;;;;1.36;76.83;99461.38;5096586;28;8850;-61
2023/03/12 01:14:28;;;;;;;;;3.00;1.00;;;;;1.43;76.29;99461.91;5096286;28;8834;-60
2023/03/12 01:16:56;;;;;;;;;1.00;1.00;;;;;1.49;76.64;99449.34;5096927;28;8825;-61
2023/03/12 01:19:24;;;;;;;;;1.80;1.80;;;;;1.55;76.63;99456.91;5096215;28;8837;-61
2023/03/12 01:21:51;;;;;;;;;0.80;0.00;;;;;1.58;75.83;99461.97;5096472;28;8853;-58
2023/03/12 01:24:20;;;;;;;;;0.80;0.80;;;;;1.64;76.10;99452.94;5096499;28;9564;-60
2023/03/12 01:26:47;;;;;;;;;1.00;1.00;;;;;1.69;75.79;99448.31;5096280;28;9563;-61
2023/03/12 01:29:15;;;;;;;;;1.00;1.00;;;;;1.73;75.80;99445.44;5097205;28;8864;-61
2023/03/12 01:31:43;;;;;;;;;1.80;1.40;;;;;1.75;75.97;99443.56;5096874;28;8855;-60
2023/03/12 01:34:11;;;;;;;;;0.40;0.40;;;;;1.78;75.81;99447.81;5097160;28;8837;-61
2023/03/12 01:36:38;;;;;;;;;3.20;2.80;;;;;1.80;76.25;99446.81;5096955;28;8867;-60
2023/03/12 01:39:06;;;;;;;;;1.00;1.00;;;;;1.82;75.47;99446.75;5096977;28;8849;-61
2023/03/12 01:41:34;;;;;;;;;2.20;1.00;;;;;1.85;75.45;99449.19;5097409;28;8872;-60
2023/03/12 01:44:02;;;;;;;;;5.20;3.80;;;;;1.86;75.70;99448.28;5097487;28;8845;-62
2023/03/12 01:46:30;;;;;;;;;3.00;3.00;;;;;1.88;75.65;99449.91;5097185;28;8841;-61
2023/03/12 01:48:58;;;;;;;;;1.00;1.00;;;;;1.87;75.87;99442.94;5096551;28;8814;-61
2023/03/12 01:51:26;;;;;;;;;2.20;1.40;;;;;1.87;75.75;99442.09;5097008;28;8822;-61
2023/03/12 01:53:54;;;;;;;;;3.40;3.00;;;;;1.86;75.58;99435.16;5096493;28;8883;-61
2023/03/12 01:56:22;;;;;;;;;4.00;3.80;;;;;1.89;75.76;99440.25;5097009;28;8915;-62
2023/03/12 01:58:50;;;;;;;;;3.00;3.00;;;;;1.93;76.28;99428.66;5096147;28;8830;-62
2023/03/12 02:01:17;;;;;;;;;0.20;0.20;;;;;1.96;75.61;99425.88;5096120;28;8834;-61
2023/03/12 02:03:45;;;;;;;;;1.00;1.00;;;;;1.99;75.32;99415.22;5096728;28;8838;-61
2023/03/12 02:06:13;;;;;;;;;1.00;1.00;;;;;2.02;75.67;99417.66;5096097;28;8839;-61
2023/03/12 02:08:42;;;;;;;;;1.80;1.80;;;;;2.05;75.57;99412.25;5096138;28;8834;-62
2023/03/12 02:11:10;;;;;;;;;0.20;0.20;;;;;2.09;75.44;99409.38;5096377;28;8907;-62
2023/03/12 02:13:37;;;;;;;;;1.00;1.00;;;;;2.12;75.17;99403.13;5096330;28;8829;-61
2023/03/12 02:16:05;;;;;;;;;1.00;1.00;;;;;2.14;75.26;99402.06;5096773;28;8826;-60
2023/03/12 02:18:33;;;;;;;;;1.00;1.00;;;;;2.17;75.62;99394.06;5095406;28;8821;-61
2023/03/12 02:21:01;;;;;;;;;0.80;0.80;;;;;2.21;75.57;99390.31;5096138;28;8833;-61
2023/03/12 02:23:29;;;;;;;;;1.80;1.00;;;;;2.22;75.14;99392.03;5096935;28;8829;-61
2023/03/12 02:25:57;;;;;;;;;1.00;1.00;;;;;2.23;75.40;99387.63;5096582;28;8855;-60
2023/03/12 02:28:24;;;;;;;;;1.00;1.00;;;;;2.21;75.39;99390.31;5096365;28;8878;-60
2023/03/12 02:30:52;;;;;;;;;3.00;2.20;;;;;2.20;75.36;99387.78;5096092;28;8860;-60
2023/03/12 02:33:20;;;;;;;;;1.40;1.40;;;;;2.19;75.36;99391.34;5096562;28;8841;-61
2023/03/12 02:35:48;;;;;;;;;1.00;1.00;;;;;2.17;75.42;99394.06;5096439;28;8829;-61
2023/03/12 02:38:15;;;;;;;;;3.00;2.20;;;;;2.17;75.63;99391.44;5095914;28;8833;-61
2023/03/12 02:40:43;;;;;;;;;1.00;1.00;;;;;2.15;75.74;99390.69;5096071;28;8857;-61
2023/03/12 02:43:11;;;;;;;;;2.20;2.20;;;;;2.14;75.20;99391.56;5097112;28;8849;-61
2023/03/12 02:45:38;;;;;;;;;3.40;3.00;;;;;2.15;75.17;99385.44;5095877;28;8836;-61
2023/03/12 02:48:06;;;;;;;;;2.60;2.60;;;;;2.19;75.82;99386.09;5095659;28;8818;-61
2023/03/12 02:50:34;;;;;;;;;2.20;2.20;;;;;2.22;74.88;99392.03;5096038;28;9451;-61
2023/03/12 02:53:02;;;;;;;;;1.00;1.00;;;;;2.25;75.53;99378.72;5095998;28;8826;-61
2023/03/12 02:55:29;;;;;;;;;1.00;1.00;;;;;2.30;75.72;99379.31;5095708;28;9518;-61
2023/03/12 02:57:57;;;;;;;;;1.00;1.00;;;;;2.33;75.16;99375.66;5095704;28;8845;-61
2023/03/12 03:00:25;;;;;;;;;2.60;2.60;;;;;2.34;75.04;99375.59;5096021;28;8834;-60
2023/03/12 03:02:53;;;;;;;;;3.20;3.00;;;;;2.34;74.71;99372.94;5095884;28;8833;-60
2023/03/12 03:05:21;;;;;;;;;3.80;3.80;;;;;2.34;74.92;99372.13;5095999;28;8873;-60
2023/03/12 03:07:49;;;;;;;;;1.00;1.00;;;;;2.31;75.20;99377.53;5095849;28;8853;-61
2023/03/12 03:10:17;;;;;;;;;3.00;3.00;;;;;2.29;75.12;99376.78;5095909;28;8802;-61
2023/03/12 03:12:44;;;;;;;;;2.20;2.20;;;;;2.26;75.40;99377.78;5096193;28;8814;-61
2023/03/12 03:15:12;;;;;;;;;1.00;1.00;;;;;2.25;75.49;99380.50;5095582;28;8826;-60
2023/03/12 03:17:40;;;;;;;;;1.00;1.00;;;;;2.27;75.38;99381.28;5095369;28;8821;-61
2023/03/12 03:20:10;;;;;;;;;0.00;0.00;;;;;2.30;75.37;99370.59;5095636;28;8834;-61
2023/03/12 03:22:38;;;;;;;;;1.00;1.00;;;;;2.32;75.81;99369.56;5095846;28;9054;-62
2023/03/12 03:25:05;;;;;;;;;0.00;0.00;;;;;2.34;75.54;99367.69;5095882;28;8910;-61
2023/03/12 03:27:33;;;;;;;;;3.40;2.60;;;;;2.38;75.34;99365.75;5095789;28;8861;-60
2023/03/12 03:30:01;;;;;;;;;1.80;1.00;;;;;2.41;74.84;99362.97;5095815;28;8817;-61
2023/03/12 03:32:29;;;;;;;;;1.00;1.00;;;;;2.42;75.50;99354.97;5096205;28;8863;-61
2023/03/12 03:34:56;;;;;;;;;1.00;1.00;;;;;2.43;75.50;99346.16;5095700;28;8833;-61
2023/03/12 03:37:24;;;;;;;;;1.00;0.40;;;;;2.41;75.11;99345.41;5095706;28;8856;-61
2023/03/12 03:39:52;;;;;;;;;0.80;0.80;;;;;2.39;74.86;99351.69;5095292;28;8844;-61
2023/03/12 03:42:19;;;;;;;;;0.80;0.80;;;;;2.35;75.34;99345.75;5095565;28;8840;-62
2023/03/12 03:44:48;;;;;;;;;1.00;0.40;;;;;2.30;75.49;99344.31;5095884;28;8848;-61
2023/03/12 03:47:16;;;;;;;;;0.80;0.80;;;;;2.26;75.16;99343.66;5095692;28;8867;-61
2023/03/12 03:49:44;;;;;;;;;2.60;2.60;;;;;2.27;75.65;99340.09;5095409;28;8872;-61
2023/03/12 03:52:11;;;;;;;;;3.00;3.00;;;;;2.30;74.89;99328.56;5095513;28;8842;-61
2023/03/12 03:54:39;;;;;;;;;0.00;0.00;;;;;2.31;75.04;99330.25;5096010;28;8814;-61
2023/03/12 03:57:06;;;;;;;;;1.00;0.00;;;;;2.31;75.23;99328.50;5095717;28;8826;-61
2023/03/12 03:59:34;;;;;;;;;0.00;0.00;;;;;2.32;75.23;99330.19;5095747;28;8850;-61
2023/03/12 04:02:02;;;;;;;;;0.00;0.00;;;;;2.36;75.15;99329.06;5095573;28;8868;-61
2023/03/12 04:04:30;;;;;;;;;1.40;1.40;;;;;2.38;74.64;99328.97;5095722;28;8822;-61
2023/03/12 04:06:57;;;;;;;;;1.00;1.00;;;;;2.37;75.07;99333.41;5095572;28;8818;-61
2023/03/12 04:09:25;;;;;;;;;1.00;0.60;;;;;2.39;74.72;99328.03;5095276;28;8814;-61
2023/03/12 04:11:53;;;;;;;;;0.80;0.80;;;;;2.37;74.90;99320.28;5095565;28;8825;-61
2023/03/12 04:14:21;;;;;;;;;1.00;0.20;;;;;2.40;74.70;99316.59;5095712;28;8868;-61
2023/03/12 04:16:48;;;;;;;;;3.00;3.00;;;;;2.43;75.03;99311.19;5095560;28;8817;-61
2023/03/12 04:19:16;;;;;;;;;1.00;1.00;;;;;2.46;74.57;99321.50;5096852;28;8832;-59
2023/03/12 04:21:44;;;;;;;;;0.40;0.20;;;;;2.48;74.63;99309.97;5098800;28;8849;-61
2023/03/12 04:24:11;;;;;;;;;0.00;0.00;;;;;2.55;74.53;99305.22;5099356;28;8837;-61
2023/03/12 04:26:39;;;;;;;;;1.00;1.00;;;;;2.57;73.71;99300.75;5099170;28;8861;-61
2023/03/12 04:29:07;;;;;;;;;1.00;1.00;;;;;2.59;73.59;99304.94;5099282;28;8834;-60
2023/03/12 04:31:34;;;;;;;;;1.00;1.00;;;;;2.64;73.42;99308.16;5098922;28;8825;-61
2023/03/12 04:34:02;;;;;;;;;0.00;0.00;;;;;2.66;74.12;99305.47;5098557;28;8837;-61
2023/03/12 04:36:30;;;;;;;;;0.00;0.00;;;;;2.71;73.78;99299.00;5098493;28;8856;-62
2023/03/12 04:38:57;;;;;;;;;1.00;0.00;;;;;2.76;73.61;99301.34;5098982;28;8829;-61
2023/03/12 04:41:25;;;;;;;;;0.20;0.00;;;;;2.80;72.82;99306.34;5098395;28;8906;-62
2023/03/12 04:43:53;;;;;;;;;0.20;0.20;;;;;2.81;72.79;99305.41;5099506;28;8829;-61
2023/03/12 04:46:21;;;;;;;;;1.00;1.00;;;;;2.81;73.08;99292.25;5098717;28;8833;-61
2023/03/12 04:48:48;;;;;;;;;0.00;0.00;;;;;2.80;73.08;99287.94;5098372;28;8841;-61
2023/03/12 04:51:16;;;;;;;;;0.00;0.00;;;;;2.82;73.09;99282.59;5098727;28;8853;-61
2023/03/12 04:53:44;;;;;;;;;0.60;0.00;;;;;2.84;72.80;99280.72;5098136;28;8834;-60
2023/03/12 04:56:11;;;;;;;;;0.60;0.00;;;;;2.85;73.10;99293.78;5098216;28;8822;-60
2023/03/12 04:58:39;;;;;;;;;1.00;1.00;;;;;2.86;73.09;99292.84;5098645;28;8901;-61
2023/03/12 05:01:07;;;;;;;;;1.00;1.00;;;;;2.87;72.71;99291.06;5098190;28;8932;-60
2023/03/12 05:03:35;;;;;;;;;0.00;0.00;;;;;2.89;72.33;99279.50;5098659;28;8826;-61
2023/03/12 05:06:03;;;;;;;;;0.00;0.00;;;;;2.91;72.63;99282.91;5098090;28;8822;-61
2023/03/12 05:08:30;;;;;;;;;1.00;0.00;;;;;2.94;72.11;99280.09;5098384;28;8822;-59
2023/03/12 05:10:58;;;;;;;;;1.00;1.00;;;;;2.97;72.56;99272.03;5098248;28;8826;-61
2023/03/12 05:13:26;;;;;;;;;0.60;0.60;;;;;3.00;72.05;99268.34;5097927;28;8814;-61
2023/03/12 05:15:53;;;;;;;;;0.40;0.40;;;;;3.00;72.06;99274.47;5098360;28;8822;-61
2023/03/12 05:18:21;;;;;;;;;1.80;1.00;;;;;3.01;71.70;99276.16;5097926;28;8809;-59
2023/03/12 05:20:49;;;;;;;;;0.00;0.00;;;;;3.02;72.15;99279.66;5097969;28;8892;-61
2023/03/12 05:23:17;;;;;;;;;1.00;1.00;;;;;3.02;72.08;99271.75;5097925;28;8829;-61
2023/03/12 05:25:44;;;;;;;;;1.00;1.00;;;;;3.00;71.51;99269.22;5098269;28;8833;-60
2023/03/12 05:28:12;;;;;;;;;2.20;1.00;;;;;3.01;71.45;99256.88;5098151;28;9793;-59
2023/03/12 05:30:39;;;;;;;;;0.80;0.00;;;;;3.01;71.37;99249.84;5097364;28;8825;-61
2023/03/12 05:33:07;;;;;;;;;0.60;0.60;;;;;3.03;70.90;99239.25;5097475;28;8861;-61
2023/03/12 05:35:35;;;;;;;;;2.20;0.60;;;;;3.03;71.20;99239.25;5097230;28;8829;-61
2023/03/12 05:38:03;;;;;;;;;0.80;0.80;;;;;3.04;71.35;99239.13;5097504;28;8843;-60
2023/03/12 05:40:30;;;;;;;;;1.00;1.00;;;;;3.05;70.89;99243.50;5096896;28;8845;-61
2023/03/12 05:42:58;;;;;;;;;1.00;0.00;;;;;3.07;70.94;99241.59;5098147;28;8829;-62
2023/03/12 05:45:26;;;;;;;;;0.40;0.40;;;;;3.11;71.37;99237.00;5096986;28;8834;-62
2023/03/12 05:47:54;;;;;;;;;0.00;0.00;;;;;3.13;71.36;99228.09;5096741;28;8802;-61
2023/03/12 05:50:22;;;;;;;;;1.00;1.00;;;;;3.16;71.26;99225.25;5096318;28;8826;-61
2023/03/12 05:52:50;;;;;;;;;0.00;0.00;;;;;3.17;70.88;99221.69;5096805;28;8818;-61
2023/03/12 05:55:18;;;;;;;;;0.40;0.40;;;;;3.21;70.52;99209.19;5097024;28;8814;-61
2023/03/12 05:57:46;;;;;;;;;0.00;0.00;;;;;3.22;70.26;99213.50;5096739;28;8846;-61
2023/03/12 06:00:14;;;;;;;;;0.00;0.00;;;;;3.24;71.03;99220.38;5096831;28;8806;-61
2023/03/12 06:02:41;;;;;;;;;1.00;0.40;;;;;3.26;70.96;99215.84;5096246;28;9558;-61
2023/03/12 06:05:09;;;;;;;;;1.40;1.40;;;;;3.28;71.08;99210.50;5096522;28;8814;-61
2023/03/12 06:07:36;;;;;;;;;1.00;1.00;;;;;3.31;70.35;99203.28;5096635;28;8854;-61
2023/03/12 06:10:04;;;;;;;;;0.00;0.00;;;;;3.35;70.32;99206.56;5096588;28;8847;-60
2023/03/12 06:12:32;;;;;;;;;1.00;1.00;;;;;3.37;70.72;99212.56;5096397;28;8810;-62
2023/03/12 06:15:00;;;;;;;;;1.40;1.40;;;;;3.39;70.39;99213.34;5096655;28;8919;-62
2023/03/12 06:17:28;;;;;;;;;0.00;0.00;;;;;3.42;70.10;99205.25;5095893;28;8968;-61
2023/03/12 06:19:55;;;;;;;;;1.00;1.00;;;;;3.45;70.59;99199.78;5096142;28;9542;-60
2023/03/12 06:22:23;;;;;;;;;0.40;0.00;;;;;3.49;69.65;99185.50;5096414;28;9479;-61
2023/03/12 06:24:50;;;;;;;;;0.40;0.40;;;;;3.51;69.53;99184.47;5096535;28;8902;-62
2023/03/12 06:27:18;;;;;;;;;2.20;2.20;;;;;3.54;69.39;99181.63;5096522;28;8921;-61
2023/03/12 06:29:46;;;;;;;;;1.00;0.40;;;;;3.56;69.70;99178.91;5096614;28;8825;-62
2023/03/12 06:32:14;;;;;;;;;1.00;1.00;;;;;3.56;70.18;99176.28;5096625;28;8830;-61
2023/03/12 06:34:41;;;;;;;;;1.00;1.00;;;;;3.57;69.36;99170.06;5096262;28;8826;-61
2023/03/12 06:37:09;;;;;;;;;0.00;0.00;;;;;3.58;69.86;99174.38;5095913;28;9542;-61
2023/03/12 06:39:37;;;;;;;;;1.00;1.00;;;;;3.61;69.83;99175.03;5095473;28;8845;-61
2023/03/12 06:42:04;;;;;;;;;3.00;3.00;;;;;3.64;69.57;99159.03;5094884;28;8859;-61
2023/03/12 06:44:32;;;;;;;;;2.20;1.00;;;;;3.67;69.10;99140.44;5096895;28;9660;-61
2023/03/12 06:46:59;;;;;;;;;1.00;1.00;;;;;3.70;69.43;99150.75;5095830;28;8838;-61
2023/03/12 06:49:30;;;;;;;;;1.00;1.00;;;;;3.72;69.39;99145.38;5096057;28;8822;-61
2023/03/12 06:51:58;;;;;;;;;0.00;0.00;;;;;3.71;69.29;99162.97;5095951;28;8822;-61
2023/03/12 06:54:26;;;;;;;;;0.60;0.60;;;;;3.72;69.63;99172.53;5095956;28;9569;-61
2023/03/12 06:56:54;;;;;;;;;1.00;1.00;;;;;3.80;69.64;99167.66;5095691;28;8826;-61
2023/03/12 06:59:21;;;;;;;;;0.80;0.80;;;;;3.81;69.82;99164.91;5095780;28;9551;-61
2023/03/12 07:01:51;;;;;;;;;1.00;1.00;;;;;3.80;69.53;99162.38;5095236;28;8868;-61
2023/03/12 07:04:18;;;;;;;;;3.00;3.00;;;;;3.77;69.79;99167.84;5094996;28;8834;-60
2023/03/12 07:06:49;;;;;;;;;1.40;1.00;;;;;3.76;69.87;99168.78;5095887;28;8838;-61
2023/03/12 07:09:17;;;;;;;;;1.00;1.00;;;;;3.78;70.01;99162.47;5095769;28;8822;-61
2023/03/12 07:11:44;;;;;;;;;2.20;2.20;;;;;3.81;69.74;99158.81;5095713;28;9515;-61
2023/03/12 07:14:12;;;;;;;;;3.80;3.40;;;;;3.84;69.42;99170.00;5095498;28;9511;-61
2023/03/12 07:16:41;;;;;;;;;3.00;1.00;;;;;3.88;69.90;99162.72;5095057;28;8818;-61
2023/03/12 07:19:08;;;;;;;;;0.20;0.20;;;;;3.90;69.89;99155.56;5095505;28;8841;-61
2023/03/12 07:21:36;;;;;;;;;1.00;1.00;;;;;3.91;69.43;99154.63;5094303;28;8960;-61
2023/03/12 07:24:06;;;;;;;;;0.60;0.40;;;;;3.93;69.72;99152.72;5095214;28;9632;-60
2023/03/12 07:26:35;;;;;;;;;1.40;0.80;;;;;3.94;69.06;99157.03;5095156;28;9756;-61
2023/03/12 07:29:02;;;;;;;;;2.60;2.60;;;;;3.97;69.84;99151.59;5094797;28;8876;-60
2023/03/12 07:31:30;;;;;;;;;0.20;0.20;;;;;3.98;69.71;99137.47;5094258;28;8836;-61
2023/03/12 07:33:58;;;;;;;;;1.00;1.00;;;;;4.00;69.65;99152.25;5094021;28;8832;-61
2023/03/12 07:36:26;;;;;;;;;1.80;1.00;;;;;4.01;70.23;99156.56;5095345;28;9499;-61
2023/03/12 07:38:54;;;;;;;;;1.00;1.00;;;;;4.03;69.93;99157.28;5095200;28;8821;-61
2023/03/12 07:41:22;;;;;;;;;0.80;0.00;;;;;4.05;70.30;99149.28;5095486;28;8861;-61
2023/03/12 07:43:49;;;;;;;;;3.00;2.20;;;;;4.10;69.99;99141.94;5095996;28;8829;-61
2023/03/12 07:46:17;;;;;;;;;1.40;0.40;;;;;4.13;70.12;99139.09;5095655;28;8833;-61
2023/03/12 07:48:45;;;;;;;;;3.00;2.20;;;;;4.15;70.14;99139.81;5094925;28;8811;-60
2023/03/12 07:51:13;;;;;;;;;1.00;1.00;;;;;4.16;69.88;99147.63;5096146;28;8840;-61
2023/03/12 07:53:41;;;;;;;;;3.00;1.80;;;;;4.17;70.08;99145.84;5097867;28;8814;-61
2023/03/12 07:56:08;;;;;;;;;3.20;3.00;;;;;4.16;70.46;99144.16;5099692;28;8867;-61
2023/03/12 07:58:37;;;;;;;;;1.40;1.40;;;;;4.16;70.50;99145.00;5099413;28;8831;-61
2023/03/12 08:01:06;;;;;;;;;3.20;2.60;;;;;4.14;70.50;99132.88;5098744;28;8891;-58
2023/03/12 08:03:34;;;;;;;;;2.60;2.60;;;;;4.07;70.52;99129.81;5099118;28;8834;-61
2023/03/12 08:06:02;;;;;;;;;1.00;1.00;;;;;4.02;71.23;99126.63;5098870;28;8849;-61
2023/03/12 08:08:30;;;;;;;;;2.60;1.80;;;;;3.95;71.45;99127.16;5098007;28;8852;-61
2023/03/12 08:10:58;;;;;;;;;1.80;1.80;;;;;3.89;71.94;99119.66;5097534;28;8980;-59
2023/03/12 08:13:25;;;;;;;;;3.20;3.00;;;;;3.86;72.52;99122.47;5097922;28;8826;-59
2023/03/12 08:15:54;;;;;;;;;2.60;2.60;;;;;3.83;72.26;99127.94;5098175;28;8833;-61
2023/03/12 08:18:21;;;;;;;;;3.00;1.40;;;;;3.83;72.27;99128.81;5098329;28;9677;-61
2023/03/12 08:20:49;;;;;;;;;3.00;3.00;;;;;3.82;72.37;99115.72;5078629;28;8858;-61
2023/03/12 08:23:17;;;;;;;;;3.40;2.60;;;;;3.84;73.04;99130.50;5077751;28;8925;-61
2023/03/12 08:25:45;;;;;;;;;3.00;3.00;;;;;3.87;72.92;99130.28;5078148;28;8832;-61
2023/03/12 08:28:13;;;;;;;;;2.60;2.60;;;;;3.91;72.30;99126.50;5082644;28;8972;-61
2023/03/12 08:30:41;;;;;;;;;3.00;3.00;;;;;3.93;72.77;99135.16;5099099;28;9875;-61
2023/03/12 08:33:08;;;;;;;;;3.40;3.40;;;;;3.97;72.98;99138.44;5098326;28;8818;-61
2023/03/12 08:35:36;;;;;;;;;3.40;3.20;;;;;4.00;72.79;99130.31;5098234;28;8830;-60
2023/03/12 08:38:04;;;;;;;;;3.20;3.20;;;;;4.05;72.89;99122.97;5098259;28;8907;-61
2023/03/12 08:40:32;;;;;;;;;2.20;2.20;;;;;4.11;72.98;99127.81;5098371;28;8841;-58
2023/03/12 08:42:59;;;;;;;;;4.00;4.00;;;;;4.17;73.48;99119.50;5098093;28;8821;-60
2023/03/12 08:45:28;;;;;;;;;0.80;0.80;;;;;4.23;72.89;99121.72;5098876;28;8836;-60
2023/03/12 08:47:55;;;;;;;;;1.40;1.40;;;;;4.28;73.12;99123.09;5097852;28;8837;-60
2023/03/12 08:50:25;;;;;;;;;3.00;1.40;;;;;4.31;73.05;99120.25;5098091;28;8853;-61
2023/03/12 08:52:53;;;;;;;;;0.60;0.60;;;;;4.34;73.84;99113.94;5098152;28;8848;-61
2023/03/12 08:55:21;;;;;;;;;1.00;0.40;;;;;4.39;74.00;99111.81;5097803;28;8818;-60
2023/03/12 08:57:48;;;;;;;;;3.80;3.00;;;;;4.47;73.64;99104.25;5097303;28;8864;-58
2023/03/12 09:00:16;;;;;;;;;3.00;3.00;;;;;4.54;73.41;99101.09;5097276;28;9519;-61
2023/03/12 09:02:44;;;;;;;;;3.00;1.80;;;;;4.62;73.99;99092.66;5097038;28;8922;-61
2023/03/12 09:05:13;;;;;;;;;3.00;3.00;;;;;4.71;73.86;99092.03;5096133;28;9600;-61
2023/03/12 09:07:42;;;;;;;;;3.00;1.00;;;;;4.78;73.49;99093.28;5097284;28;9808;-59
2023/03/12 09:10:10;;;;;;;;;4.80;3.40;;;;;4.86;73.29;99096.22;5097206;28;8818;-61
2023/03/12 09:12:37;;;;;;;;;1.80;1.00;;;;;4.91;73.50;99092.31;5097607;28;8833;-60
2023/03/12 09:15:05;;;;;;;;;3.00;3.00;;;;;4.95;73.42;99106.97;5097559;28;9480;-61
2023/03/12 09:17:33;;;;;;;;;2.20;2.20;;;;;4.97;74.23;99096.31;5097098;28;8980;-62
2023/03/12 09:20:01;;;;;;;;;5.60;4.00;;;;;4.99;73.99;99094.41;5097296;28;8818;-59
2023/03/12 09:22:28;;;;;;;;;2.20;1.80;;;;;5.03;74.25;99093.25;5097292;28;8845;-60
2023/03/12 09:24:56;;;;;;;;;4.00;3.00;;;;;5.09;74.53;99092.81;5097456;28;8907;-61
2023/03/12 09:27:24;;;;;;;;;5.20;4.80;;;;;5.11;73.73;99080.34;5097202;28;8844;-59
2023/03/12 09:29:52;;;;;;;;;3.00;1.00;;;;;5.16;74.17;99083.50;5097485;28;8987;-60
2023/03/12 09:32:27;;;;;;;;;4.00;3.80;;;;;5.26;73.96;99081.88;5097220;28;8856;-61
2023/03/12 09:34:55;;;;;;;;;3.40;1.80;;;;;5.37;74.46;99087.22;5096908;28;8840;-61
2023/03/12 09:37:23;;;;;;;;;4.80;4.80;;;;;5.46;74.00;99081.31;5096918;28;8849;-60
2023/03/12 09:39:51;;;;;;;;;4.00;4.00;;;;;5.50;74.05;99073.03;5097149;28;8829;-61
2023/03/12 09:42:19;;;;;;;;;0.80;0.80;;;;;5.52;73.82;99070.28;5097603;28;8849;-61
2023/03/12 09:44:47;;;;;;;;;3.00;3.00;;;;;5.57;74.20;99073.44;5097647;28;8863;-59
2023/03/12 09:47:14;;;;;;;;;3.20;3.00;;;;;5.68;74.26;99073.50;5096868;28;8886;-59
2023/03/12 09:49:43;;;;;;;;;3.60;1.80;;;;;5.82;74.23;99070.69;5096871;28;8833;-61
2023/03/12 09:52:11;;;;;;;;;3.00;3.00;;;;;5.95;73.92;99061.75;5096825;28;8963;-61
2023/03/12 09:54:39;;;;;;;;;3.60;3.20;;;;;6.04;73.60;99062.84;5096812;28;8833;-59
2023/03/12 09:57:07;;;;;;;;;4.40;3.00;;;;;6.06;73.90;99066.22;5096294;28;8959;-59
2023/03/12 09:59:35;;;;;;;;;2.20;2.20;;;;;6.04;74.10;99057.56;5080376;28;8963;-61
2023/03/12 10:02:03;;;;;;;;;3.00;3.00;;;;;6.02;74.12;99055.06;5076353;28;8835;-59
2023/03/12 10:04:31;;;;;;;;;0.20;0.20;;;;;6.04;74.34;99053.13;5075642;28;9523;-59
2023/03/12 10:07:04;;;;;;;;;3.00;2.20;;;;;6.07;73.93;99055.53;5075347;28;8835;-60
2023/03/12 10:09:32;;;;;;;;;3.00;2.20;;;;;6.12;74.27;99065.75;5076082;28;8904;-60
2023/03/12 10:12:00;;;;;;;;;1.00;1.00;;;;;6.15;74.55;99070.81;5075264;28;8831;-60
2023/03/12 10:14:28;;;;;;;;;1.00;1.00;;;;;6.16;74.58;99083.91;5075620;28;8840;-61
2023/03/12 10:16:56;;;;;;;;;1.00;1.00;;;;;6.16;74.52;99083.06;5074809;28;8921;-61
2023/03/12 10:19:24;;;;;;;;;3.00;3.00;;;;;6.14;74.75;99077.06;5075476;28;8840;-61
2023/03/12 10:21:52;;;;;;;;;1.00;1.00;;;;;6.14;74.50;99077.88;5074975;28;8824;-61
2023/03/12 10:24:21;;;;;;;;;1.00;1.00;;;;;6.17;74.67;99068.91;5074016;28;8850;-61
2023/03/12 10:26:51;;;;;;;;;1.80;1.80;;;;;6.23;74.83;99073.72;5074025;28;8823;-61
2023/03/12 10:29:19;;;;;;;;;1.00;1.00;;;;;6.34;74.65;99077.22;5085705;28;8952;-60
2023/03/12 10:31:47;;;;;;;;;0.20;0.20;;;;;6.43;74.99;99092.38;5073774;28;8946;-59
2023/03/12 10:34:15;;;;;;;;;0.60;0.60;;;;;6.39;74.36;99096.25;5074535;28;8848;-58
2023/03/12 10:36:44;;;;;;;;;0.40;0.40;;;;;6.25;74.86;99103.50;5075368;28;8824;-59
2023/03/12 10:39:12;;;;;;;;;0.60;0.00;;;;;6.11;75.98;99101.06;5075474;28;8842;-58
2023/03/12 10:41:39;;;;;;;;;0.00;0.00;;;;;6.04;75.92;99099.84;5075549;28;8824;-59
2023/03/12 10:44:08;;;;;;;;;1.00;1.00;;;;;5.98;76.61;99105.56;5090213;28;8887;-59
2023/03/12 10:46:35;;;;;;;;;0.00;0.00;;;;;5.98;76.83;99102.94;5095886;28;8956;-60
2023/03/12 10:49:03;;;;;;;;;0.00;0.00;;;;;6.07;76.82;99083.78;5095852;28;8953;-61
2023/03/12 10:51:32;;;;;;;;;0.40;0.40;;;;;6.18;76.54;99083.78;5087791;28;8824;-62
2023/03/12 10:53:59;;;;;;;;;0.00;0.00;;;;;6.27;76.81;99089.22;5074492;28;8836;-60
2023/03/12 10:56:28;;;;;;;;;0.80;0.80;;;;;6.27;76.44;99089.22;5074717;28;8836;-59
2023/03/12 10:58:58;;;;;;;;;0.00;0.00;;;;;6.29;77.04;99086.47;5089035;28;8853;-61
2023/03/12 11:01:26;;;;;;;;;0.00;0.00;;;;;6.27;77.20;99091.03;5095112;28;8833;-60
2023/03/12 11:03:54;;;;;;;;;1.00;1.00;;;;;6.22;77.58;99087.91;5095494;28;8884;-61
2023/03/12 11:06:22;;;;;;;;;0.00;0.00;;;;;6.18;77.83;99099.66;5095649;28;8830;-59
2023/03/12 11:08:50;;;;;;;;;0.40;0.00;;;;;6.15;78.04;99106.00;5095945;28;8845;-59
2023/03/12 11:11:18;;;;;;;;;0.40;0.40;;;;;6.13;78.03;99099.13;5095668;28;8822;-60
2023/03/12 11:13:46;;;;;;;;;0.00;0.00;;;;;6.10;78.11;99107.31;5095968;28;8984;-61
2023/03/12 11:16:14;;;;;;;;;0.00;0.00;;;;;6.05;78.15;99114.72;5095268;28;9720;-59
2023/03/12 11:18:42;;;;;;;;;0.00;0.00;;;;;6.05;78.48;99109.44;5094890;28;8817;-61
2023/03/12 11:21:10;;;;;;;;;1.00;0.00;;;;;6.12;78.26;99110.66;5094780;28;8964;-59
2023/03/12 11:23:39;;;;;;;;;1.00;0.00;;;;;6.22;78.65;99103.75;5095336;28;8830;-60
2023/03/12 11:26:07;;;;;;;;;1.00;1.00;;;;;6.32;78.59;99097.66;5095099;28;8857;-59
2023/03/12 11:28:35;;;;;;;;;1.00;0.80;;;;;6.45;78.48;99100.22;5097566;28;8938;-62
2023/03/12 11:31:03;;;;;;;;;0.00;0.00;;;;;6.55;78.17;99101.19;5099607;28;9522;-59
2023/03/12 11:33:31;;;;;;;;;0.00;0.00;;;;;6.59;78.17;99110.59;5099741;28;8836;-60
2023/03/12 11:36:02;;;;;;;;;0.00;0.00;;;;;6.60;78.58;99096.38;5099564;28;8837;-58
2023/03/12 11:38:30;;;;;;;;;0.00;0.00;;;;;6.63;78.81;99089.06;5099217;28;8841;-60
2023/03/12 11:40:58;;;;;;;;;0.00;0.00;;;;;6.67;78.98;99085.19;5098804;28;8837;-58
2023/03/12 11:43:26;;;;;;;;;0.00;0.00;;;;;6.69;78.24;99087.75;5099500;28;8829;-58
2023/03/12 11:46:09;;;;;;;;;0.00;0.00;;;;;6.73;78.68;99099.75;5099149;28;8845;-58
2023/03/12 11:48:37;;;;;;;;;0.00;0.00;;;;;6.80;78.70;99093.03;5099348;28;8845;-62
2023/03/12 11:51:05;;;;;;;;;1.00;1.00;;;;;6.85;78.79;99104.09;5098546;28;8953;-59
2023/03/12 11:53:33;;;;;;;;;0.00;0.00;;;;;6.87;78.82;99096.88;5098515;28;8849;-59